sensor_id;sensor_type;location;lat;lon;timestamp;P1;durP1;ratioP1;P2;durP2;ratioP2
15716;SDS011;7960;50.908;4.204;2023-01-30T00:01:19;40.73;;;21.87;;
15716;SDS011;7960;50.908;4.204;2023-01-30T00:03:48;42.73;;;22.67;;
15716;SDS011;7960;50.908;4.204;2023-01-30T00:06:16;35.10;;;18.03;;
15716;SDS011;7960;50.908;4.204;2023-01-30T00:08:43;44.07;;;22.23;;
15716;SDS011;7960;50.908;4.204;2023-01-30T00:11:10;40.67;;;21.97;;
15716;SDS011;7960;50.908;4.204;2023-01-30T00:13:39;45.87;;;24.83;;
15716;SDS011;7960;50.908;4.204;2023-01-30T00:16:07;31.27;;;16.27;;
15716;SDS011;7960;50.908;4.204;2023-01-30T00:18:34;36.40;;;20.67;;
15716;SDS011;7960;50.908;4.204;2023-01-30T00:21:02;40.97;;;23.20;;
15716;SDS011;7960;50.908;4.204;2023-01-30T00:23:32;43.80;;;23.47;;
15716;SDS011;7960;50.908;4.204;2023-01-30T00:26:00;37.03;;;22.60;;
15716;SDS011;7960;50.908;4.204;2023-01-30T00:28:26;36.63;;;21.40;;
15716;SDS011;7960;50.908;4.204;2023-01-30T00:30:54;44.17;;;23.10;;
15716;SDS011;7960;50.908;4.204;2023-01-30T00:33:22;36.13;;;21.90;;
15716;SDS011;7960;50.908;4.204;2023-01-30T00:35:51;32.60;;;17.50;;
15716;SDS011;7960;50.908;4.204;2023-01-30T00:38:19;35.30;;;18.43;;
15716;SDS011;7960;50.908;4.204;2023-01-30T00:40:48;33.03;;;18.83;;
15716;SDS011;7960;50.908;4.204;2023-01-30T00:43:15;36.40;;;19.93;;
15716;SDS011;7960;50.908;4.204;2023-01-30T00:46:01;36.17;;;19.80;;
15716;SDS011;7960;50.908;4.204;2023-01-30T00:48:47;33.67;;;17.83;;
15716;SDS011;7960;50.908;4.204;2023-01-30T00:51:13;27.00;;;14.00;;
15716;SDS011;7960;50.908;4.204;2023-01-30T00:53:40;36.53;;;19.57;;
15716;SDS011;7960;50.908;4.204;2023-01-30T00:56:08;41.07;;;22.67;;
15716;SDS011;7960;50.908;4.204;2023-01-30T00:58:35;39.40;;;19.97;;
15716;SDS011;7960;50.908;4.204;2023-01-30T01:01:02;44.07;;;22.50;;
15716;SDS011;7960;50.908;4.204;2023-01-30T01:03:29;39.87;;;21.43;;
15716;SDS011;7960;50.908;4.204;2023-01-30T01:05:56;42.03;;;20.97;;
15716;SDS011;7960;50.908;4.204;2023-01-30T01:08:23;42.97;;;22.70;;
15716;SDS011;7960;50.908;4.204;2023-01-30T01:10:49;39.97;;;22.63;;
15716;SDS011;7960;50.908;4.204;2023-01-30T01:13:18;40.33;;;21.07;;
15716;SDS011;7960;50.908;4.204;2023-01-30T01:15:44;30.10;;;16.60;;
15716;SDS011;7960;50.908;4.204;2023-01-30T01:18:11;38.40;;;19.83;;
15716;SDS011;7960;50.908;4.204;2023-01-30T01:20:38;36.20;;;20.57;;
15716;SDS011;7960;50.908;4.204;2023-01-30T01:23:05;31.27;;;16.77;;
15716;SDS011;7960;50.908;4.204;2023-01-30T01:25:31;38.83;;;22.07;;
15716;SDS011;7960;50.908;4.204;2023-01-30T01:27:58;38.67;;;19.90;;
15716;SDS011;7960;50.908;4.204;2023-01-30T01:30:26;36.53;;;19.17;;
15716;SDS011;7960;50.908;4.204;2023-01-30T01:32:53;35.37;;;18.30;;
15716;SDS011;7960;50.908;4.204;2023-01-30T01:35:21;41.17;;;21.03;;
15716;SDS011;7960;50.908;4.204;2023-01-30T01:37:51;39.73;;;20.27;;
15716;SDS011;7960;50.908;4.204;2023-01-30T01:40:19;35.87;;;19.77;;
15716;SDS011;7960;50.908;4.204;2023-01-30T01:43:08;35.90;;;19.93;;
15716;SDS011;7960;50.908;4.204;2023-01-30T01:45:42;48.53;;;18.77;;
15716;SDS011;7960;50.908;4.204;2023-01-30T01:48:10;28.80;;;15.60;;
15716;SDS011;7960;50.908;4.204;2023-01-30T01:50:41;40.07;;;21.50;;
15716;SDS011;7960;50.908;4.204;2023-01-30T01:53:11;30.73;;;17.53;;
15716;SDS011;7960;50.908;4.204;2023-01-30T01:55:40;33.37;;;17.37;;
15716;SDS011;7960;50.908;4.204;2023-01-30T01:58:09;30.53;;;17.77;;
15716;SDS011;7960;50.908;4.204;2023-01-30T02:00:39;31.33;;;16.93;;
15716;SDS011;7960;50.908;4.204;2023-01-30T02:03:08;34.33;;;18.57;;
15716;SDS011;7960;50.908;4.204;2023-01-30T02:05:40;30.30;;;17.60;;
15716;SDS011;7960;50.908;4.204;2023-01-30T02:08:10;28.13;;;14.80;;
15716;SDS011;7960;50.908;4.204;2023-01-30T02:10:40;28.60;;;16.87;;
15716;SDS011;7960;50.908;4.204;2023-01-30T02:13:12;31.17;;;18.13;;
15716;SDS011;7960;50.908;4.204;2023-01-30T02:15:38;29.07;;;17.53;;
15716;SDS011;7960;50.908;4.204;2023-01-30T02:18:07;33.00;;;17.97;;
15716;SDS011;7960;50.908;4.204;2023-01-30T02:20:38;30.40;;;17.70;;
15716;SDS011;7960;50.908;4.204;2023-01-30T02:23:22;28.13;;;17.10;;
15716;SDS011;7960;50.908;4.204;2023-01-30T02:29:29;26.30;;;15.70;;
15716;SDS011;7960;50.908;4.204;2023-01-30T02:32:27;24.57;;;14.80;;
15716;SDS011;7960;50.908;4.204;2023-01-30T02:35:02;31.63;;;19.37;;
15716;SDS011;7960;50.908;4.204;2023-01-30T02:37:39;34.63;;;18.03;;
15716;SDS011;7960;50.908;4.204;2023-01-30T02:40:17;34.97;;;18.57;;
15716;SDS011;7960;50.908;4.204;2023-01-30T02:42:58;30.40;;;16.50;;
15716;SDS011;7960;50.908;4.204;2023-01-30T02:45:31;38.50;;;18.57;;
15716;SDS011;7960;50.908;4.204;2023-01-30T02:48:03;32.30;;;17.33;;
15716;SDS011;7960;50.908;4.204;2023-01-30T02:50:32;26.67;;;15.53;;
15716;SDS011;7960;50.908;4.204;2023-01-30T02:53:03;34.53;;;17.53;;
15716;SDS011;7960;50.908;4.204;2023-01-30T02:55:31;26.57;;;15.33;;
15716;SDS011;7960;50.908;4.204;2023-01-30T02:57:58;24.77;;;14.83;;
15716;SDS011;7960;50.908;4.204;2023-01-30T03:00:30;32.80;;;16.70;;
15716;SDS011;7960;50.908;4.204;2023-01-30T03:03:11;30.43;;;16.17;;
15716;SDS011;7960;50.908;4.204;2023-01-30T03:05:55;27.17;;;16.30;;
15716;SDS011;7960;50.908;4.204;2023-01-30T03:08:40;30.77;;;15.93;;
15716;SDS011;7960;50.908;4.204;2023-01-30T03:11:15;27.20;;;14.63;;
15716;SDS011;7960;50.908;4.204;2023-01-30T03:13:45;37.63;;;15.83;;
15716;SDS011;7960;50.908;4.204;2023-01-30T03:16:18;23.97;;;14.97;;
15716;SDS011;7960;50.908;4.204;2023-01-30T03:18:52;23.33;;;13.17;;
15716;SDS011;7960;50.908;4.204;2023-01-30T03:21:19;25.40;;;14.43;;
15716;SDS011;7960;50.908;4.204;2023-01-30T03:23:46;25.27;;;14.73;;
15716;SDS011;7960;50.908;4.204;2023-01-30T03:26:14;26.50;;;14.27;;
15716;SDS011;7960;50.908;4.204;2023-01-30T03:28:44;30.90;;;15.13;;
15716;SDS011;7960;50.908;4.204;2023-01-30T03:31:13;27.60;;;14.27;;
15716;SDS011;7960;50.908;4.204;2023-01-30T03:33:40;24.93;;;14.33;;
15716;SDS011;7960;50.908;4.204;2023-01-30T03:36:08;29.30;;;15.03;;
15716;SDS011;7960;50.908;4.204;2023-01-30T03:38:36;28.17;;;14.47;;
15716;SDS011;7960;50.908;4.204;2023-01-30T03:41:03;25.47;;;14.33;;
15716;SDS011;7960;50.908;4.204;2023-01-30T03:43:30;24.27;;;13.57;;
15716;SDS011;7960;50.908;4.204;2023-01-30T03:45:57;25.23;;;13.83;;
15716;SDS011;7960;50.908;4.204;2023-01-30T03:48:24;24.50;;;15.07;;
15716;SDS011;7960;50.908;4.204;2023-01-30T03:50:51;26.47;;;13.63;;
15716;SDS011;7960;50.908;4.204;2023-01-30T03:53:19;23.73;;;13.43;;
15716;SDS011;7960;50.908;4.204;2023-01-30T03:55:45;28.53;;;13.23;;
15716;SDS011;7960;50.908;4.204;2023-01-30T03:58:12;23.80;;;14.63;;
15716;SDS011;7960;50.908;4.204;2023-01-30T04:00:39;26.70;;;12.73;;
15716;SDS011;7960;50.908;4.204;2023-01-30T04:03:06;20.47;;;12.20;;
15716;SDS011;7960;50.908;4.204;2023-01-30T04:05:33;26.97;;;14.00;;
15716;SDS011;7960;50.908;4.204;2023-01-30T04:08:00;27.03;;;13.07;;
15716;SDS011;7960;50.908;4.204;2023-01-30T04:10:28;24.47;;;11.97;;
15716;SDS011;7960;50.908;4.204;2023-01-30T04:12:55;23.10;;;13.60;;
15716;SDS011;7960;50.908;4.204;2023-01-30T04:15:21;22.90;;;13.10;;
15716;SDS011;7960;50.908;4.204;2023-01-30T04:17:48;14.47;;;8.50;;
15716;SDS011;7960;50.908;4.204;2023-01-30T04:20:15;24.90;;;13.43;;
15716;SDS011;7960;50.908;4.204;2023-01-30T04:22:42;23.03;;;12.73;;
15716;SDS011;7960;50.908;4.204;2023-01-30T04:25:09;21.27;;;12.93;;
15716;SDS011;7960;50.908;4.204;2023-01-30T04:27:37;25.37;;;12.80;;
15716;SDS011;7960;50.908;4.204;2023-01-30T04:30:04;22.67;;;12.70;;
15716;SDS011;7960;50.908;4.204;2023-01-30T04:32:32;22.43;;;11.67;;
15716;SDS011;7960;50.908;4.204;2023-01-30T04:34:59;25.43;;;12.57;;
15716;SDS011;7960;50.908;4.204;2023-01-30T04:37:25;22.00;;;12.60;;
15716;SDS011;7960;50.908;4.204;2023-01-30T04:39:52;26.37;;;12.63;;
15716;SDS011;7960;50.908;4.204;2023-01-30T04:42:19;24.33;;;12.37;;
15716;SDS011;7960;50.908;4.204;2023-01-30T04:44:47;19.23;;;10.37;;
15716;SDS011;7960;50.908;4.204;2023-01-30T04:47:14;16.17;;;9.80;;
15716;SDS011;7960;50.908;4.204;2023-01-30T04:49:41;22.00;;;10.80;;
15716;SDS011;7960;50.908;4.204;2023-01-30T04:52:08;24.60;;;12.20;;
15716;SDS011;7960;50.908;4.204;2023-01-30T04:54:35;18.37;;;11.17;;
15716;SDS011;7960;50.908;4.204;2023-01-30T04:57:02;20.23;;;11.60;;
15716;SDS011;7960;50.908;4.204;2023-01-30T04:59:29;22.70;;;11.47;;
15716;SDS011;7960;50.908;4.204;2023-01-30T05:01:57;17.33;;;10.40;;
15716;SDS011;7960;50.908;4.204;2023-01-30T05:04:24;23.23;;;10.17;;
15716;SDS011;7960;50.908;4.204;2023-01-30T05:06:50;19.83;;;9.77;;
15716;SDS011;7960;50.908;4.204;2023-01-30T05:09:17;15.23;;;9.17;;
15716;SDS011;7960;50.908;4.204;2023-01-30T05:11:44;16.90;;;9.23;;
15716;SDS011;7960;50.908;4.204;2023-01-30T05:14:11;21.40;;;8.93;;
15716;SDS011;7960;50.908;4.204;2023-01-30T05:16:37;15.53;;;9.43;;
15716;SDS011;7960;50.908;4.204;2023-01-30T05:19:06;17.63;;;8.80;;
15716;SDS011;7960;50.908;4.204;2023-01-30T05:21:32;18.07;;;9.00;;
15716;SDS011;7960;50.908;4.204;2023-01-30T05:23:59;13.77;;;8.23;;
15716;SDS011;7960;50.908;4.204;2023-01-30T05:26:26;18.67;;;9.90;;
15716;SDS011;7960;50.908;4.204;2023-01-30T05:28:53;14.33;;;8.30;;
15716;SDS011;7960;50.908;4.204;2023-01-30T05:31:22;19.93;;;7.43;;
15716;SDS011;7960;50.908;4.204;2023-01-30T05:33:49;15.93;;;7.43;;
15716;SDS011;7960;50.908;4.204;2023-01-30T05:36:18;14.33;;;8.00;;
15716;SDS011;7960;50.908;4.204;2023-01-30T05:38:47;14.47;;;8.17;;
15716;SDS011;7960;50.908;4.204;2023-01-30T05:41:14;14.50;;;8.17;;
15716;SDS011;7960;50.908;4.204;2023-01-30T05:43:42;14.10;;;7.97;;
15716;SDS011;7960;50.908;4.204;2023-01-30T05:46:09;14.27;;;8.20;;
15716;SDS011;7960;50.908;4.204;2023-01-30T05:48:37;15.00;;;8.07;;
15716;SDS011;7960;50.908;4.204;2023-01-30T05:51:04;13.63;;;7.50;;
15716;SDS011;7960;50.908;4.204;2023-01-30T05:53:32;17.57;;;8.23;;
15716;SDS011;7960;50.908;4.204;2023-01-30T05:56:00;12.90;;;6.83;;
15716;SDS011;7960;50.908;4.204;2023-01-30T05:58:29;12.60;;;7.40;;
15716;SDS011;7960;50.908;4.204;2023-01-30T06:01:00;13.13;;;7.50;;
15716;SDS011;7960;50.908;4.204;2023-01-30T06:03:27;16.50;;;8.60;;
15716;SDS011;7960;50.908;4.204;2023-01-30T06:05:54;13.23;;;8.13;;
15716;SDS011;7960;50.908;4.204;2023-01-30T06:08:21;12.40;;;7.23;;
15716;SDS011;7960;50.908;4.204;2023-01-30T06:10:49;13.47;;;8.10;;
15716;SDS011;7960;50.908;4.204;2023-01-30T06:13:16;14.37;;;7.73;;
15716;SDS011;7960;50.908;4.204;2023-01-30T06:15:43;11.67;;;7.70;;
15716;SDS011;7960;50.908;4.204;2023-01-30T06:18:10;15.17;;;7.07;;
15716;SDS011;7960;50.908;4.204;2023-01-30T06:20:37;16.13;;;8.40;;
15716;SDS011;7960;50.908;4.204;2023-01-30T06:23:04;11.90;;;8.30;;
15716;SDS011;7960;50.908;4.204;2023-01-30T06:25:30;14.53;;;7.97;;
15716;SDS011;7960;50.908;4.204;2023-01-30T06:27:58;14.80;;;8.00;;
15716;SDS011;7960;50.908;4.204;2023-01-30T06:30:25;14.20;;;7.67;;
15716;SDS011;7960;50.908;4.204;2023-01-30T06:32:52;15.27;;;7.63;;
15716;SDS011;7960;50.908;4.204;2023-01-30T06:35:19;16.60;;;8.43;;
15716;SDS011;7960;50.908;4.204;2023-01-30T06:37:46;15.53;;;8.20;;
15716;SDS011;7960;50.908;4.204;2023-01-30T06:40:13;14.53;;;8.00;;
15716;SDS011;7960;50.908;4.204;2023-01-30T06:42:43;11.87;;;7.70;;
15716;SDS011;7960;50.908;4.204;2023-01-30T06:45:12;13.97;;;7.60;;
15716;SDS011;7960;50.908;4.204;2023-01-30T06:47:45;14.97;;;8.40;;
15716;SDS011;7960;50.908;4.204;2023-01-30T06:50:13;12.80;;;7.30;;
15716;SDS011;7960;50.908;4.204;2023-01-30T06:52:42;14.27;;;7.87;;
15716;SDS011;7960;50.908;4.204;2023-01-30T06:55:10;12.50;;;7.60;;
15716;SDS011;7960;50.908;4.204;2023-01-30T06:57:37;11.27;;;7.33;;
15716;SDS011;7960;50.908;4.204;2023-01-30T07:00:05;15.93;;;8.10;;
15716;SDS011;7960;50.908;4.204;2023-01-30T07:02:34;12.70;;;6.53;;
15716;SDS011;7960;50.908;4.204;2023-01-30T07:05:02;12.47;;;7.33;;
15716;SDS011;7960;50.908;4.204;2023-01-30T07:07:30;15.93;;;7.23;;
15716;SDS011;7960;50.908;4.204;2023-01-30T07:09:57;16.27;;;7.13;;
15716;SDS011;7960;50.908;4.204;2023-01-30T07:12:24;14.40;;;6.97;;
15716;SDS011;7960;50.908;4.204;2023-01-30T07:14:52;11.63;;;6.97;;
15716;SDS011;7960;50.908;4.204;2023-01-30T07:17:19;11.40;;;5.70;;
15716;SDS011;7960;50.908;4.204;2023-01-30T07:19:48;12.23;;;6.47;;
15716;SDS011;7960;50.908;4.204;2023-01-30T07:22:15;13.97;;;6.50;;
15716;SDS011;7960;50.908;4.204;2023-01-30T07:24:42;13.43;;;6.30;;
15716;SDS011;7960;50.908;4.204;2023-01-30T07:27:09;13.37;;;6.00;;
15716;SDS011;7960;50.908;4.204;2023-01-30T07:29:37;14.60;;;6.77;;
15716;SDS011;7960;50.908;4.204;2023-01-30T07:32:05;10.30;;;5.47;;
15716;SDS011;7960;50.908;4.204;2023-01-30T07:34:33;13.00;;;5.37;;
15716;SDS011;7960;50.908;4.204;2023-01-30T07:37:01;14.77;;;5.47;;
15716;SDS011;7960;50.908;4.204;2023-01-30T07:39:27;15.07;;;5.07;;
15716;SDS011;7960;50.908;4.204;2023-01-30T07:41:54;13.43;;;5.53;;
15716;SDS011;7960;50.908;4.204;2023-01-30T07:44:21;10.43;;;5.00;;
15716;SDS011;7960;50.908;4.204;2023-01-30T07:46:48;12.83;;;5.00;;
15716;SDS011;7960;50.908;4.204;2023-01-30T07:49:15;11.23;;;4.40;;
15716;SDS011;7960;50.908;4.204;2023-01-30T07:51:41;13.03;;;5.07;;
15716;SDS011;7960;50.908;4.204;2023-01-30T07:54:10;12.87;;;4.50;;
15716;SDS011;7960;50.908;4.204;2023-01-30T07:56:36;9.53;;;4.33;;
15716;SDS011;7960;50.908;4.204;2023-01-30T07:59:03;8.80;;;3.80;;
15716;SDS011;7960;50.908;4.204;2023-01-30T08:01:30;11.30;;;4.53;;
15716;SDS011;7960;50.908;4.204;2023-01-30T08:03:57;14.43;;;3.80;;
15716;SDS011;7960;50.908;4.204;2023-01-30T08:06:24;11.87;;;4.17;;
15716;SDS011;7960;50.908;4.204;2023-01-30T08:08:51;10.73;;;4.10;;
15716;SDS011;7960;50.908;4.204;2023-01-30T08:11:19;15.37;;;4.87;;
15716;SDS011;7960;50.908;4.204;2023-01-30T08:13:46;9.27;;;4.17;;
15716;SDS011;7960;50.908;4.204;2023-01-30T08:16:13;11.63;;;4.00;;
15716;SDS011;7960;50.908;4.204;2023-01-30T08:18:40;8.97;;;3.97;;
15716;SDS011;7960;50.908;4.204;2023-01-30T08:21:07;10.10;;;3.43;;
15716;SDS011;7960;50.908;4.204;2023-01-30T08:23:34;8.30;;;3.27;;
15716;SDS011;7960;50.908;4.204;2023-01-30T08:26:01;8.67;;;3.27;;
15716;SDS011;7960;50.908;4.204;2023-01-30T08:28:31;10.17;;;2.90;;
15716;SDS011;7960;50.908;4.204;2023-01-30T08:30:58;14.03;;;3.73;;
15716;SDS011;7960;50.908;4.204;2023-01-30T08:33:25;6.63;;;2.63;;
15716;SDS011;7960;50.908;4.204;2023-01-30T08:35:52;11.63;;;3.63;;
15716;SDS011;7960;50.908;4.204;2023-01-30T08:38:21;8.53;;;3.00;;
15716;SDS011;7960;50.908;4.204;2023-01-30T08:40:48;7.80;;;3.00;;
15716;SDS011;7960;50.908;4.204;2023-01-30T08:43:14;9.43;;;3.13;;
15716;SDS011;7960;50.908;4.204;2023-01-30T08:45:43;13.80;;;3.30;;
15716;SDS011;7960;50.908;4.204;2023-01-30T08:48:09;8.73;;;2.97;;
15716;SDS011;7960;50.908;4.204;2023-01-30T08:50:36;7.03;;;2.73;;
15716;SDS011;7960;50.908;4.204;2023-01-30T08:53:03;7.57;;;2.50;;
15716;SDS011;7960;50.908;4.204;2023-01-30T08:55:30;8.03;;;3.53;;
15716;SDS011;7960;50.908;4.204;2023-01-30T08:57:57;8.00;;;2.40;;
15716;SDS011;7960;50.908;4.204;2023-01-30T09:00:25;8.53;;;2.87;;
15716;SDS011;7960;50.908;4.204;2023-01-30T09:02:53;13.20;;;3.10;;
15716;SDS011;7960;50.908;4.204;2023-01-30T09:05:21;16.97;;;3.13;;
15716;SDS011;7960;50.908;4.204;2023-01-30T09:07:48;7.10;;;3.00;;
15716;SDS011;7960;50.908;4.204;2023-01-30T09:10:15;8.60;;;2.80;;
15716;SDS011;7960;50.908;4.204;2023-01-30T09:12:42;9.83;;;2.80;;
15716;SDS011;7960;50.908;4.204;2023-01-30T09:15:10;9.17;;;3.80;;
15716;SDS011;7960;50.908;4.204;2023-01-30T09:17:37;8.67;;;2.70;;
15716;SDS011;7960;50.908;4.204;2023-01-30T09:20:06;10.50;;;2.73;;
15716;SDS011;7960;50.908;4.204;2023-01-30T09:22:34;11.13;;;2.83;;
15716;SDS011;7960;50.908;4.204;2023-01-30T09:25:02;9.93;;;3.03;;
15716;SDS011;7960;50.908;4.204;2023-01-30T09:27:29;10.27;;;3.30;;
15716;SDS011;7960;50.908;4.204;2023-01-30T09:29:56;9.37;;;2.80;;
15716;SDS011;7960;50.908;4.204;2023-01-30T09:32:23;5.47;;;2.47;;
15716;SDS011;7960;50.908;4.204;2023-01-30T09:34:50;10.40;;;2.80;;
15716;SDS011;7960;50.908;4.204;2023-01-30T09:37:18;10.80;;;2.80;;
15716;SDS011;7960;50.908;4.204;2023-01-30T09:39:45;13.60;;;2.93;;
15716;SDS011;7960;50.908;4.204;2023-01-30T09:42:24;12.77;;;2.60;;
15716;SDS011;7960;50.908;4.204;2023-01-30T09:45:13;8.00;;;2.80;;
15716;SDS011;7960;50.908;4.204;2023-01-30T09:47:54;6.80;;;2.07;;
15716;SDS011;7960;50.908;4.204;2023-01-30T09:50:34;9.13;;;2.77;;
15716;SDS011;7960;50.908;4.204;2023-01-30T09:53:15;6.13;;;2.23;;
15716;SDS011;7960;50.908;4.204;2023-01-30T09:55:47;13.43;;;3.37;;
15716;SDS011;7960;50.908;4.204;2023-01-30T09:58:15;7.47;;;2.20;;
15716;SDS011;7960;50.908;4.204;2023-01-30T10:00:44;7.43;;;2.20;;
15716;SDS011;7960;50.908;4.204;2023-01-30T10:03:12;7.90;;;2.73;;
15716;SDS011;7960;50.908;4.204;2023-01-30T10:05:43;15.67;;;3.70;;
15716;SDS011;7960;50.908;4.204;2023-01-30T10:08:19;12.63;;;3.70;;
15716;SDS011;7960;50.908;4.204;2023-01-30T10:10:57;13.27;;;2.30;;
15716;SDS011;7960;50.908;4.204;2023-01-30T10:13:33;13.40;;;3.20;;
15716;SDS011;7960;50.908;4.204;2023-01-30T10:16:12;10.60;;;2.73;;
15716;SDS011;7960;50.908;4.204;2023-01-30T10:18:53;10.27;;;2.60;;
15716;SDS011;7960;50.908;4.204;2023-01-30T10:21:30;8.40;;;2.70;;
15716;SDS011;7960;50.908;4.204;2023-01-30T10:24:13;8.20;;;2.43;;
15716;SDS011;7960;50.908;4.204;2023-01-30T10:26:52;14.80;;;3.53;;
15716;SDS011;7960;50.908;4.204;2023-01-30T10:29:20;12.30;;;3.30;;
15716;SDS011;7960;50.908;4.204;2023-01-30T10:31:53;17.03;;;3.37;;
15716;SDS011;7960;50.908;4.204;2023-01-30T10:34:24;9.43;;;2.63;;
15716;SDS011;7960;50.908;4.204;2023-01-30T10:36:56;14.23;;;2.87;;
15716;SDS011;7960;50.908;4.204;2023-01-30T10:39:30;7.60;;;2.30;;
15716;SDS011;7960;50.908;4.204;2023-01-30T10:42:02;8.83;;;2.40;;
15716;SDS011;7960;50.908;4.204;2023-01-30T10:44:34;14.87;;;3.10;;
15716;SDS011;7960;50.908;4.204;2023-01-30T10:49:56;12.53;;;3.30;;
15716;SDS011;7960;50.908;4.204;2023-01-30T10:52:32;12.03;;;2.43;;
15716;SDS011;7960;50.908;4.204;2023-01-30T10:55:11;11.53;;;2.67;;
15716;SDS011;7960;50.908;4.204;2023-01-30T10:57:49;7.30;;;2.57;;
15716;SDS011;7960;50.908;4.204;2023-01-30T11:00:25;11.33;;;3.27;;
15716;SDS011;7960;50.908;4.204;2023-01-30T11:03:01;10.77;;;2.50;;
15716;SDS011;7960;50.908;4.204;2023-01-30T11:05:38;11.83;;;2.63;;
15716;SDS011;7960;50.908;4.204;2023-01-30T11:08:11;13.20;;;3.17;;
15716;SDS011;7960;50.908;4.204;2023-01-30T11:10:46;10.97;;;2.83;;
15716;SDS011;7960;50.908;4.204;2023-01-30T11:13:15;7.97;;;2.33;;
15716;SDS011;7960;50.908;4.204;2023-01-30T11:15:44;8.83;;;2.83;;
15716;SDS011;7960;50.908;4.204;2023-01-30T11:18:14;17.83;;;3.57;;
15716;SDS011;7960;50.908;4.204;2023-01-30T11:20:43;9.60;;;2.10;;
15716;SDS011;7960;50.908;4.204;2023-01-30T11:23:25;10.80;;;3.37;;
15716;SDS011;7960;50.908;4.204;2023-01-30T11:25:57;20.87;;;3.00;;
15716;SDS011;7960;50.908;4.204;2023-01-30T11:28:26;27.47;;;4.50;;
15716;SDS011;7960;50.908;4.204;2023-01-30T11:30:53;15.13;;;3.77;;
15716;SDS011;7960;50.908;4.204;2023-01-30T11:33:23;18.83;;;3.90;;
15716;SDS011;7960;50.908;4.204;2023-01-30T11:35:57;12.83;;;2.83;;
15716;SDS011;7960;50.908;4.204;2023-01-30T11:38:27;11.13;;;2.43;;
15716;SDS011;7960;50.908;4.204;2023-01-30T11:41:04;18.43;;;3.00;;
15716;SDS011;7960;50.908;4.204;2023-01-30T11:43:39;13.17;;;3.03;;
15716;SDS011;7960;50.908;4.204;2023-01-30T11:46:06;12.17;;;3.43;;
15716;SDS011;7960;50.908;4.204;2023-01-30T11:48:35;12.77;;;3.23;;
15716;SDS011;7960;50.908;4.204;2023-01-30T11:51:08;9.33;;;2.93;;
15716;SDS011;7960;50.908;4.204;2023-01-30T11:53:37;11.00;;;3.60;;
15716;SDS011;7960;50.908;4.204;2023-01-30T11:56:13;9.93;;;3.00;;
15716;SDS011;7960;50.908;4.204;2023-01-30T11:58:42;26.23;;;3.80;;
15716;SDS011;7960;50.908;4.204;2023-01-30T12:01:14;10.53;;;2.93;;
15716;SDS011;7960;50.908;4.204;2023-01-30T12:03:44;11.40;;;2.53;;
15716;SDS011;7960;50.908;4.204;2023-01-30T12:06:20;45.73;;;5.93;;
15716;SDS011;7960;50.908;4.204;2023-01-30T12:08:50;11.30;;;2.57;;
15716;SDS011;7960;50.908;4.204;2023-01-30T12:11:27;13.83;;;2.70;;
15716;SDS011;7960;50.908;4.204;2023-01-30T12:14:05;19.07;;;4.00;;
15716;SDS011;7960;50.908;4.204;2023-01-30T12:16:42;18.33;;;3.60;;
15716;SDS011;7960;50.908;4.204;2023-01-30T12:19:22;17.40;;;3.20;;
15716;SDS011;7960;50.908;4.204;2023-01-30T12:22:04;16.03;;;4.10;;
15716;SDS011;7960;50.908;4.204;2023-01-30T12:24:39;11.63;;;3.13;;
15716;SDS011;7960;50.908;4.204;2023-01-30T12:27:12;19.53;;;3.50;;
15716;SDS011;7960;50.908;4.204;2023-01-30T12:29:50;15.77;;;3.27;;
15716;SDS011;7960;50.908;4.204;2023-01-30T12:32:25;18.63;;;3.23;;
15716;SDS011;7960;50.908;4.204;2023-01-30T12:34:52;29.27;;;4.53;;
15716;SDS011;7960;50.908;4.204;2023-01-30T12:40:13;17.47;;;3.30;;
15716;SDS011;7960;50.908;4.204;2023-01-30T12:43:01;12.27;;;3.10;;
15716;SDS011;7960;50.908;4.204;2023-01-30T12:45:39;14.73;;;3.23;;
15716;SDS011;7960;50.908;4.204;2023-01-30T12:48:26;19.87;;;3.07;;
15716;SDS011;7960;50.908;4.204;2023-01-30T12:51:04;10.27;;;2.90;;
15716;SDS011;7960;50.908;4.204;2023-01-30T12:53:47;16.03;;;2.83;;
15716;SDS011;7960;50.908;4.204;2023-01-30T12:59:25;14.93;;;3.57;;
15716;SDS011;7960;50.908;4.204;2023-01-30T13:02:02;12.77;;;3.47;;
15716;SDS011;7960;50.908;4.204;2023-01-30T13:04:45;19.57;;;3.97;;
15716;SDS011;7960;50.908;4.204;2023-01-30T13:07:20;17.33;;;3.40;;
15716;SDS011;7960;50.908;4.204;2023-01-30T13:09:59;8.97;;;2.67;;
15716;SDS011;7960;50.908;4.204;2023-01-30T13:12:36;18.63;;;3.10;;
15716;SDS011;7960;50.908;4.204;2023-01-30T13:15:12;16.50;;;3.30;;
15716;SDS011;7960;50.908;4.204;2023-01-30T13:17:50;11.83;;;3.27;;
15716;SDS011;7960;50.908;4.204;2023-01-30T13:20:31;15.20;;;3.33;;
15716;SDS011;7960;50.908;4.204;2023-01-30T13:23:16;24.77;;;3.60;;
15716;SDS011;7960;50.908;4.204;2023-01-30T13:25:51;14.87;;;3.07;;
15716;SDS011;7960;50.908;4.204;2023-01-30T13:28:25;16.23;;;3.13;;
15716;SDS011;7960;50.908;4.204;2023-01-30T13:30:57;10.57;;;3.23;;
15716;SDS011;7960;50.908;4.204;2023-01-30T13:33:27;47.43;;;6.20;;
15716;SDS011;7960;50.908;4.204;2023-01-30T13:36:01;13.70;;;2.80;;
15716;SDS011;7960;50.908;4.204;2023-01-30T13:38:31;17.17;;;3.50;;
15716;SDS011;7960;50.908;4.204;2023-01-30T13:41:02;15.83;;;3.53;;
15716;SDS011;7960;50.908;4.204;2023-01-30T13:43:30;15.23;;;3.27;;
15716;SDS011;7960;50.908;4.204;2023-01-30T13:46:06;42.30;;;6.97;;
15716;SDS011;7960;50.908;4.204;2023-01-30T13:48:44;16.53;;;3.63;;
15716;SDS011;7960;50.908;4.204;2023-01-30T13:51:21;13.13;;;3.03;;
15716;SDS011;7960;50.908;4.204;2023-01-30T13:54:04;11.83;;;3.37;;
15716;SDS011;7960;50.908;4.204;2023-01-30T13:56:36;13.10;;;2.90;;
15716;SDS011;7960;50.908;4.204;2023-01-30T13:59:09;20.70;;;2.90;;
15716;SDS011;7960;50.908;4.204;2023-01-30T14:04:46;16.93;;;3.67;;
15716;SDS011;7960;50.908;4.204;2023-01-30T14:07:16;11.07;;;3.33;;
15716;SDS011;7960;50.908;4.204;2023-01-30T14:09:48;14.67;;;2.60;;
15716;SDS011;7960;50.908;4.204;2023-01-30T14:12:27;13.07;;;3.23;;
15716;SDS011;7960;50.908;4.204;2023-01-30T14:15:01;22.23;;;4.47;;
15716;SDS011;7960;50.908;4.204;2023-01-30T14:17:33;10.47;;;3.13;;
15716;SDS011;7960;50.908;4.204;2023-01-30T14:20:00;18.30;;;4.30;;
15716;SDS011;7960;50.908;4.204;2023-01-30T14:22:34;22.53;;;5.43;;
15716;SDS011;7960;50.908;4.204;2023-01-30T14:31:09;14.43;;;3.10;;
15716;SDS011;7960;50.908;4.204;2023-01-30T14:33:48;12.13;;;3.20;;
15716;SDS011;7960;50.908;4.204;2023-01-30T14:36:34;27.10;;;4.13;;
15716;SDS011;7960;50.908;4.204;2023-01-30T14:42:22;26.43;;;4.67;;
15716;SDS011;7960;50.908;4.204;2023-01-30T14:45:00;18.57;;;3.37;;
15716;SDS011;7960;50.908;4.204;2023-01-30T14:47:30;11.50;;;3.23;;
15716;SDS011;7960;50.908;4.204;2023-01-30T14:49:59;22.73;;;4.33;;
15716;SDS011;7960;50.908;4.204;2023-01-30T14:52:36;11.13;;;3.07;;
15716;SDS011;7960;50.908;4.204;2023-01-30T14:55:05;16.10;;;3.73;;
15716;SDS011;7960;50.908;4.204;2023-01-30T14:57:47;16.00;;;3.60;;
15716;SDS011;7960;50.908;4.204;2023-01-30T15:00:19;13.73;;;2.90;;
15716;SDS011;7960;50.908;4.204;2023-01-30T15:02:51;11.23;;;3.07;;
15716;SDS011;7960;50.908;4.204;2023-01-30T15:05:26;11.00;;;2.93;;
15716;SDS011;7960;50.908;4.204;2023-01-30T15:07:56;11.67;;;2.93;;
15716;SDS011;7960;50.908;4.204;2023-01-30T15:10:39;19.67;;;2.93;;
15716;SDS011;7960;50.908;4.204;2023-01-30T15:13:27;13.87;;;3.60;;
15716;SDS011;7960;50.908;4.204;2023-01-30T15:16:06;21.33;;;4.27;;
15716;SDS011;7960;50.908;4.204;2023-01-30T15:18:55;9.97;;;3.17;;
15716;SDS011;7960;50.908;4.204;2023-01-30T15:21:34;25.07;;;4.27;;
15716;SDS011;7960;50.908;4.204;2023-01-30T15:24:15;18.93;;;3.53;;
15716;SDS011;7960;50.908;4.204;2023-01-30T15:26:53;12.93;;;2.67;;
15716;SDS011;7960;50.908;4.204;2023-01-30T15:29:34;17.83;;;3.00;;
15716;SDS011;7960;50.908;4.204;2023-01-30T15:32:40;21.43;;;4.03;;